Nearby METAR Reports

 

KSEE - San Diego/Santee, California, USA
Distance from station: E 4mi, 6km
Updated: Mon, 23-May-2022 1:47pm PDT
Clear
Clear
 Wind from W
Wind: W 10 mph , 17 km/h
Temperature: 72°F , 22°C
Dew Point: 54°F , 12°C
Humidity: 53%
Barometer: 29.89 inHg , 1012.2 hPa
Clouds: Clear
Visibility: 10 miles , 16 km
2022/05/23 20:47 KSEE 232047Z 27009KT 10SM SKC 22/12 A2989
KMYF - San Diego/Mntgmy, California, USA
Distance from station: W 6mi, 10km
Updated: Mon, 23-May-2022 1:53pm PDT
Clear
Clear
 Wind from varies
Wind: varies 7 mph , 11 km/h
Temperature: 68°F , 20°C
Dew Point: 54°F , 12°C
Humidity: 60%
Barometer: 29.91 inHg , 1012.9 hPa
Clouds: Clear
Visibility: 10 miles , 16 km
2022/05/23 20:53 KMYF 232053Z VRB06KT 10SM CLR 20/12 A2991 RMK AO2 SLP123 T02000122 56014
 
KNKX - Miramar Nas/San, California, USA
Distance from station: WNW 7mi, 11km
Updated: Mon, 23-May-2022 1:55pm PDT
Clear
Clear
 Wind from WNW
Wind: WNW 7 mph , 11 km/h
Temperature: 66°F , 19°C
Dew Point: 54°F , 12°C
Humidity: 64%
Barometer: 29.90 inHg , 1012.5 hPa
Clouds: Clear
Visibility: 10 miles , 16 km
2022/05/23 20:55 KNKX 232055Z 30006KT 10SM CLR 19/12 A2990 RMK AO2 SLP120 T01890117 56013
KSAN - San Diego, California, USA
Distance from station: WSW 11mi, 17km
Updated: Mon, 23-May-2022 1:51pm PDT
Mostly cloudy
Mostly cloudy
 Wind from WSW
Wind: WSW 10 mph , 17 km/h
Temperature: 63°F , 17°C
Dew Point: 54°F , 12°C
Humidity: 73%
Barometer: 29.92 inHg , 1013.2 hPa
Clouds: Mostly cloudy
Visibility: 10 miles , 16 km
Cloud details: Mostly cloudy 1900 ft
2022/05/23 20:51 KSAN 232051Z 24009KT 10SM BKN019 17/12 A2992 RMK AO2 SLP133 T01720122 56014
 
KNZY - North Island Nas, California, USA
Distance from station: SW 13mi, 22km
Updated: Mon, 23-May-2022 1:52pm PDT
Partly cloudy
Partly cloudy
 Wind from WSW
Wind: WSW 9 mph , 15 km/h
Temperature: 64°F , 18°C
Dew Point: 54°F , 12°C
Humidity: 68%
Barometer: 29.91 inHg , 1012.9 hPa
Clouds: Partly cloudy
Visibility: 10 miles , 16 km
Cloud details: Partly cloudy 1600 ft
2022/05/23 20:52 KNZY 232052Z 25008KT 10SM SCT016 18/12 A2991 RMK AO2 SLP127 T01830122 56013
KRNM - Ramona, California, USA
Distance from station: NNE 16mi, 26km
Updated: Mon, 23-May-2022 1:53pm PDT
Clear
Clear
 Wind from W
Wind: W 8 mph , 13 km/h, Gust: 18 mph , 30 km/h
Temperature: 73°F , 23°C
Dew Point: 54°F , 12°C
Humidity: 50%
Barometer: 29.89 inHg , 1012.2 hPa
Clouds: Clear
Visibility: 10 miles , 16 km
2022/05/23 20:53 KRNM 232053Z 26007G16KT 10SM CLR 23/12 A2989 RMK AO2 SLP110 T02330117 56016
 
KSDM - San Diego/Brown, California, USA
Distance from station: S 16mi, 26km
Updated: Mon, 23-May-2022 1:53pm PDT
Partly cloudy
Partly cloudy
 Wind from WSW
Wind: WSW 9 mph , 15 km/h, Gust: 17 mph , 28 km/h
Temperature: 70°F , 21°C
Dew Point: 54°F , 12°C
Humidity: 57%
Barometer: 29.90 inHg , 1012.5 hPa
Clouds: Partly cloudy
Visibility: 10 miles , 16 km
Cloud details: Partly cloudy 1800 ft
2022/05/23 20:53 KSDM 232053Z 25008G15KT 220V300 10SM SCT018 21/12 A2990 RMK AO2 SLP121 T02060122 56012
KNRS - Imperial Beach, California, USA
Distance from station: SSW 18mi, 29km
Updated: Mon, 23-May-2022 1:53pm PDT
Mostly cloudy
Mostly cloudy
 Wind from WNW
Wind: WNW 13 mph , 20 km/h
Temperature: 64°F , 18°C
Dew Point: 54°F , 12°C
Humidity: 68%
Barometer: 29.92 inHg , 1013.2 hPa
Clouds: Mostly cloudy
Visibility: 10 miles , 16 km
Cloud details: Mostly cloudy 1700 ft
2022/05/23 20:53 KNRS 232053Z 29011KT 250V020 10SM BKN017 18/12 A2992 RMK AO2 SLP132 T01780122 56010
 
MMTJ - Tijuana Intl Arp, Mexico
Distance from station: S 20mi, 32km
Updated: Mon, 23-May-2022 1:44pm PDT
Few Clouds
Few Clouds
 Wind from WNW
Wind: WNW 8 mph , 13 km/h
Temperature: 68°F , 20°C
Dew Point: 55°F , 13°C
Humidity: 64%
Barometer: 29.93 inHg , 1013.5 hPa
Clouds: Few Clouds
Visibility: 8 miles , 13 km
Cloud details: Few Clouds 1500 ft
2022/05/23 20:44 MMTJ 232044Z 30007KT 8SM FEW015 20/13 A2993 RMK SLP138 57010 972 8/500 HZY
KCRQ - Carlsbad, California, USA
Distance from station: NW 26mi, 43km
Updated: Mon, 23-May-2022 1:53pm PDT
Overcast
Overcast
 Wind from SW
Wind: SW 7 mph , 11 km/h
Temperature: 61°F , 16°C
Dew Point: 54°F , 12°C
Humidity: 77%
Barometer: 29.90 inHg , 1012.5 hPa
Clouds: Overcast
Visibility: 10 miles , 16 km
Cloud details: Overcast 1100 ft
2022/05/23 20:53 KCRQ 232053Z 22006KT 10SM OVC011 16/12 A2990 RMK AO2 SLP124 T01560122 58006
 
KOKB - Oceanside, California, USA
Distance from station: NW 33mi, 54km
Updated: Mon, 23-May-2022 1:52pm PDT
Overcast
Overcast
 Wind from W
Wind: W 10 mph , 17 km/h
Temperature: 64°F , 18°C
Dew Point: 55°F , 13°C
Humidity: 73%
Barometer: 29.91 inHg , 1012.9 hPa
Clouds: Overcast
Visibility: 8 miles , 13 km
Cloud details: Overcast 1500 ft
2022/05/23 20:52 KOKB 232052Z AUTO 26009KT 8SM OVC015 18/13 A2991 RMK AO2 SLP126 T01830128 56006
KCZZ - Campo, California, USA
Distance from station: ESE 35mi, 56km
Updated: Mon, 26-Oct-2020 8:52am PDT
NOT Current

 Wind from NE
Wind: NE 14 mph , 22 km/h, Gust: 20 mph , 31 km/h
Temperature: 48°F , 9°C
Wind Chill: 42°F , 6°C
Dew Point: 27°F , -3°C
Humidity: 43%
Barometer: 29.99 inHg , 1015.6 hPa
2020/10/26 15:52 KCZZ 261552Z AUTO 05012G17KT 09/M03 A2999 RMK AO1 SLP140 T00891028
 
KNFG - Camp Pendleton, California, USA
Distance from station: NNW 37mi, 59km
Updated: Mon, 23-May-2022 2:19pm PDT
Partly cloudy
Partly cloudy
 Wind from W
Wind: W 9 mph , 15 km/h
Temperature: 66°F , 19°C
Dew Point: 55°F , 13°C
Humidity: 68%
Barometer: 29.89 inHg , 1012.2 hPa
Clouds: Partly cloudy
Visibility: 10 miles , 16 km
Cloud details: Partly cloudy 1700 ft
2022/05/23 21:19 KNFG 232119Z 26008KT 10SM SCT017 19/13 A2989 RMK AO2 T01940128 $
KRIV - Riverside/March, California, USA
Distance from station: N 74mi, 119km
Updated: Mon, 23-May-2022 1:58pm PDT
Few Clouds
Few Clouds
 Wind from NNW
Wind: NNW 9 mph , 15 km/h
Temperature: 77°F , 25°C
Dew Point: 50°F , 10°C
Humidity: 39%
Barometer: 29.87 inHg , 1011.5 hPa
Clouds: Few Clouds
Visibility: 10 miles , 16 km
Cloud details: Few Clouds 25000 ft
2022/05/23 20:58 KRIV 232058Z 33008KT 10SM FEW250 25/10 A2987 RMK AO2A SLP106 T02540104 57016
 
KTRM - Thermal/Palm Spg, California, USA
Distance from station: NE 75mi, 121km
Updated: Mon, 23-May-2022 1:52pm PDT
Clear
Clear
 Wind from SE
Wind: SE 10 mph , 17 km/h, Gust: 18 mph , 30 km/h
Temperature: 95°F , 35°C
Dew Point: 46°F , 8°C
Humidity: 19%
Barometer: 29.72 inHg , 1006.4 hPa
Clouds: Clear
Visibility: 10 miles , 16 km
2022/05/23 20:52 KTRM 232052Z AUTO 13009G16KT 10SM CLR 35/08 A2972 RMK AO2 SLP066 T03500078 58028
KPSP - Palm Springs, California, USA
Distance from station: NNE 76mi, 122km
Updated: Mon, 23-May-2022 1:53pm PDT
Clear
Clear
 
Temperature: 95°F , 35°C
Dew Point: 45°F , 7°C
Humidity: 18%
Barometer: 29.76 inHg , 1007.8 hPa
Clouds: Clear
Visibility: 10 miles , 16 km
2022/05/23 20:53 KPSP 232053Z 10SM CLR 35/07 A2976 RMK AO2 SLP072 T03500067 58024 $
 
KSNA - Costa Mesa, California, USA
Distance from station: NW 76mi, 123km
Updated: Mon, 23-May-2022 1:53pm PDT
Partly cloudy
Partly cloudy
 Wind from SSW
Wind: SSW 9 mph , 15 km/h
Temperature: 68°F , 20°C
Dew Point: 54°F , 12°C
Humidity: 60%
Barometer: 29.90 inHg , 1012.5 hPa
Clouds: Partly cloudy
Visibility: 10 miles , 16 km
Cloud details: Partly cloudy 1900 ft
2022/05/23 20:53 KSNA 232053Z 21008KT 10SM SCT019 20/12 A2990 RMK AO2 SLP125 T02000122 58015
KNJK - El Centro Naf, California, USA
Distance from station: E 79mi, 127km
Updated: Mon, 23-May-2022 1:56pm PDT
Few Clouds
Few Clouds
 Wind from SSE
Wind: SSE 6 mph , 9 km/h
Temperature: 95°F , 35°C
Dew Point: 48°F , 9°C
Humidity: 20%
Barometer: 29.75 inHg , 1007.5 hPa
Clouds: Few Clouds
Visibility: 10 miles , 16 km
Cloud details: Few Clouds 25000 ft
2022/05/23 20:56 KNJK 232056Z 16005KT 10SM FEW250 35/09 A2975 RMK AO2 SLP090 T03500089 58023 $
 
KAJO - Corona Muni, California, USA
Distance from station: NNW 82mi, 132km
Updated: Mon, 23-May-2022 1:56pm PDT
Clear
Clear
 Wind from W
Wind: W 10 mph , 17 km/h, Gust: 21 mph , 33 km/h
Temperature: 73°F , 23°C
Dew Point: 55°F , 13°C
Humidity: 53%
Barometer: 29.87 inHg , 1011.5 hPa
Clouds: Clear
Visibility: 10 miles , 16 km
2022/05/23 20:56 KAJO 232056Z AUTO 26009G18KT 10SM CLR 23/13 A2987 RMK AO2 SLP110 6//// T02280128 58020